createdAt,value
2022-10-23T00:02:22.557Z,9.05
2022-10-23T00:04:53.729Z,8.93
2022-10-23T00:07:21.724Z,8.02
2022-10-23T00:09:49.613Z,7.15
2022-10-23T00:12:17.528Z,7.30
2022-10-23T00:14:45.394Z,7.88
2022-10-23T00:17:13.642Z,6.95
2022-10-23T00:19:41.521Z,7.88
2022-10-23T00:22:11.240Z,7.20
2022-10-23T00:24:39.259Z,7.15
2022-10-23T00:27:07.252Z,6.72
2022-10-23T00:29:35.163Z,7.00
2022-10-23T00:32:03.110Z,7.10
2022-10-23T00:34:31.028Z,6.75
2022-10-23T00:36:58.905Z,7.13
2022-10-23T00:39:28.260Z,6.60
2022-10-23T00:41:56.209Z,6.53
2022-10-23T00:45:01.448Z,6.32
2022-10-23T00:49:57.206Z,5.97
2022-10-23T00:52:25.130Z,5.82
2022-10-23T00:54:54.432Z,6.50
2022-10-23T00:57:22.490Z,6.22
2022-10-23T00:59:50.465Z,5.95
2022-10-23T01:02:18.527Z,6.65
2022-10-23T01:04:46.573Z,7.05
2022-10-23T01:07:19.601Z,6.53
2022-10-23T01:09:52.802Z,6.10
2022-10-23T01:12:29.851Z,6.20
2022-10-23T01:15:06.775Z,6.00
2022-10-23T01:17:42.486Z,5.78
2022-10-23T01:20:23.515Z,5.40
2022-10-23T01:23:16.367Z,5.55
2022-10-23T01:26:23.604Z,5.70
2022-10-23T01:28:57.879Z,5.75
2022-10-23T01:31:31.109Z,5.25
2022-10-23T01:34:04.737Z,5.27
2022-10-23T01:36:34.803Z,5.07
2022-10-23T01:39:07.939Z,5.20
2022-10-23T01:41:40.516Z,5.05
2022-10-23T01:44:15.549Z,4.90
2022-10-23T01:46:45.362Z,4.97
2022-10-23T01:49:15.021Z,5.38
2022-10-23T01:51:47.019Z,5.10
2022-10-23T01:54:17.862Z,5.53
2022-10-23T01:56:49.615Z,5.25
2022-10-23T01:59:23.541Z,4.82
2022-10-23T02:01:54.781Z,5.20
2022-10-23T02:04:28.327Z,4.75
2022-10-23T02:06:56.363Z,4.50
2022-10-23T02:09:24.540Z,5.00
2022-10-23T02:11:57.890Z,5.55
2022-10-23T02:14:38.570Z,4.38
2022-10-23T02:17:16.044Z,5.18
2022-10-23T02:19:49.981Z,4.63
2022-10-23T02:22:22.718Z,4.32
2022-10-23T02:24:53.409Z,4.65
2022-10-23T02:27:27.025Z,5.00
2022-10-23T02:30:01.126Z,4.85
2022-10-23T02:32:30.641Z,4.07
2022-10-23T02:34:58.642Z,4.18
2022-10-23T02:37:27.087Z,4.38
2022-10-23T02:39:55.925Z,4.53
2022-10-23T02:42:29.112Z,4.68
2022-10-23T02:45:06.035Z,4.53
2022-10-23T02:47:48.059Z,4.70
2022-10-23T02:50:27.056Z,4.10
2022-10-23T02:53:05.494Z,5.00
2022-10-23T02:55:45.632Z,5.13
2022-10-23T02:58:21.705Z,4.78
2022-10-23T03:00:55.760Z,4.80
2022-10-23T03:05:53.770Z,4.40
2022-10-23T03:08:21.603Z,4.97
2022-10-23T03:10:49.555Z,4.90
2022-10-23T03:13:17.451Z,4.93
2022-10-23T03:15:45.755Z,4.57
2022-10-23T03:18:15.041Z,4.65
2022-10-23T03:20:42.973Z,4.75
2022-10-23T03:23:13.826Z,4.78
2022-10-23T03:25:41.681Z,5.13
2022-10-23T03:28:09.564Z,5.10
2022-10-23T03:30:37.463Z,5.30
2022-10-23T03:33:05.427Z,4.88
2022-10-23T03:35:34.597Z,5.40
2022-10-23T03:38:02.510Z,5.00
2022-10-23T03:40:30.485Z,5.00
2022-10-23T03:42:58.679Z,4.75
2022-10-23T03:45:26.696Z,5.50
2022-10-23T03:47:54.631Z,5.50
2022-10-23T03:50:22.470Z,4.80
2022-10-23T03:52:51.846Z,4.40
2022-10-23T03:55:19.941Z,5.00
2022-10-23T03:57:47.804Z,4.82
2022-10-23T04:00:15.927Z,5.70
2022-10-23T04:02:44.260Z,5.40
2022-10-23T04:05:12.655Z,5.35
2022-10-23T04:07:40.641Z,5.57
2022-10-23T04:10:10.823Z,5.03
2022-10-23T04:12:38.780Z,5.07
2022-10-23T04:15:07.255Z,4.88
2022-10-23T04:17:35.153Z,4.90
2022-10-23T04:20:03.140Z,5.55
2022-10-23T04:22:31.035Z,5.40
2022-10-23T04:24:58.887Z,5.10
2022-10-23T04:27:28.158Z,4.95
2022-10-23T04:29:58.357Z,4.97
2022-10-23T04:32:27.414Z,4.82
2022-10-23T04:34:55.292Z,5.95
2022-10-23T04:37:23.208Z,6.00
2022-10-23T04:39:51.073Z,5.70
2022-10-23T04:42:19.071Z,5.72
2022-10-23T04:44:48.400Z,5.82
2022-10-23T04:47:16.272Z,5.75
2022-10-23T04:49:44.370Z,5.38
2022-10-23T04:52:12.229Z,5.57
2022-10-23T04:54:40.681Z,5.57
2022-10-23T04:57:08.743Z,5.68
2022-10-23T04:59:36.783Z,6.00
2022-10-23T05:02:06.492Z,5.65
2022-10-23T05:04:34.353Z,6.10
2022-10-23T05:07:02.551Z,5.80
2022-10-23T05:09:30.428Z,5.90
2022-10-23T05:11:58.268Z,6.10
2022-10-23T05:14:26.188Z,5.97
2022-10-23T05:16:59.178Z,5.80
2022-10-23T05:19:33.985Z,6.15
2022-10-23T05:22:02.618Z,6.78
2022-10-23T05:24:30.847Z,6.13
2022-10-23T05:26:58.902Z,6.30
2022-10-23T05:29:26.777Z,6.15
2022-10-23T05:32:00.040Z,6.63
2022-10-23T05:34:31.337Z,6.47
2022-10-23T05:36:59.288Z,6.68
2022-10-23T05:39:27.481Z,7.18
2022-10-23T05:41:56.135Z,6.70
2022-10-23T05:44:24.075Z,6.25
2022-10-23T05:46:52.042Z,6.10
2022-10-23T05:49:19.937Z,5.72
2022-10-23T05:51:49.121Z,6.70
2022-10-23T05:54:16.984Z,6.22
2022-10-23T05:56:44.843Z,6.53
2022-10-23T05:59:12.734Z,5.78
2022-10-23T06:01:40.707Z,6.43
2022-10-23T06:04:08.752Z,5.90
2022-10-23T06:06:37.378Z,6.35
2022-10-23T06:09:06.996Z,5.97
2022-10-23T06:11:34.942Z,6.30
2022-10-23T06:14:02.904Z,5.82
2022-10-23T06:16:30.929Z,5.97
2022-10-23T06:18:58.868Z,5.40
2022-10-23T06:21:26.834Z,5.82
2022-10-23T06:23:55.777Z,5.95
2022-10-23T06:26:25.065Z,6.15
2022-10-23T06:28:52.944Z,5.45
2022-10-23T06:31:26.505Z,6.03
2022-10-23T06:33:54.805Z,5.30
2022-10-23T06:36:22.774Z,5.82
2022-10-23T06:38:52.112Z,5.65
2022-10-23T06:41:22.582Z,5.45
2022-10-23T06:43:53.346Z,6.15
2022-10-23T06:46:21.277Z,6.22
2022-10-23T06:48:49.193Z,5.32
2022-10-23T06:51:18.445Z,5.80
2022-10-23T06:53:46.725Z,6.00
2022-10-23T06:56:17.075Z,5.63
2022-10-23T06:58:44.964Z,5.95
2022-10-23T07:01:16.311Z,5.43
2022-10-23T07:03:45.029Z,5.68
2022-10-23T07:06:13.259Z,5.57
2022-10-23T07:08:41.484Z,5.93
2022-10-23T07:11:11.580Z,6.03
2022-10-23T07:13:40.559Z,6.30
2022-10-23T07:16:15.528Z,5.07
2022-10-23T07:18:44.104Z,5.47
2022-10-23T07:21:12.010Z,5.10
2022-10-23T07:23:40.366Z,5.25
2022-10-23T07:26:09.989Z,4.47
2022-10-23T07:28:38.006Z,5.50
2022-10-23T07:31:06.230Z,5.22
2022-10-23T07:33:35.733Z,4.95
2022-10-23T07:36:06.067Z,5.28
2022-10-23T07:38:34.368Z,4.47
2022-10-23T07:41:03.459Z,5.13
2022-10-23T07:46:00.481Z,4.78
2022-10-23T07:48:28.810Z,5.10
2022-10-23T07:51:01.922Z,5.03
2022-10-23T07:53:30.537Z,5.53
2022-10-23T07:56:00.032Z,5.18
2022-10-23T07:58:29.226Z,5.20
2022-10-23T08:00:58.948Z,5.22
2022-10-23T08:03:27.492Z,4.95
2022-10-23T08:05:56.199Z,4.53
2022-10-23T08:08:26.143Z,4.78
2022-10-23T08:10:56.202Z,5.07
2022-10-23T08:13:24.664Z,5.07
2022-10-23T08:15:53.462Z,4.05
2022-10-23T08:18:21.461Z,4.20
2022-10-23T08:20:52.417Z,4.10
2022-10-23T08:23:20.935Z,4.32
2022-10-23T08:25:50.282Z,4.43
2022-10-23T08:28:18.180Z,4.22
2022-10-23T08:30:46.379Z,4.38
2022-10-23T08:33:14.278Z,4.22
2022-10-23T08:35:42.212Z,4.28
2022-10-23T08:38:11.588Z,3.83
2022-10-23T08:40:40.083Z,4.68
2022-10-23T08:43:17.229Z,4.35
2022-10-23T08:45:48.514Z,4.20
2022-10-23T08:48:23.682Z,3.75
2022-10-23T08:50:55.305Z,4.30
2022-10-23T08:53:30.851Z,3.95
2022-10-23T08:56:03.702Z,3.60
2022-10-23T08:58:37.980Z,3.60
2022-10-23T09:03:47.582Z,3.63
2022-10-23T09:06:26.361Z,4.07
2022-10-23T09:09:01.545Z,3.78
2022-10-23T09:11:37.391Z,3.58
2022-10-23T09:14:35.866Z,3.60
2022-10-23T09:17:15.703Z,3.50
2022-10-23T09:19:46.558Z,3.55
2022-10-23T09:22:15.025Z,3.95
2022-10-23T09:24:44.643Z,3.90
2022-10-23T09:27:16.896Z,2.85
2022-10-23T09:29:51.347Z,3.05
2022-10-23T09:32:20.944Z,3.13
2022-10-23T09:34:54.348Z,3.85
2022-10-23T09:37:25.430Z,3.40
2022-10-23T09:40:05.023Z,3.35
2022-10-23T09:42:32.913Z,3.13
2022-10-23T09:45:02.128Z,3.15
2022-10-23T09:47:30.033Z,3.25
2022-10-23T09:49:58.773Z,3.13
2022-10-23T09:52:33.250Z,3.20
2022-10-23T09:55:03.194Z,3.10
2022-10-23T09:57:33.783Z,3.70
2022-10-23T10:00:07.637Z,3.25
2022-10-23T10:02:38.147Z,3.50
2022-10-23T10:05:23.702Z,3.17
2022-10-23T10:07:58.329Z,3.28
2022-10-23T10:10:30.788Z,3.30
2022-10-23T10:13:02.915Z,2.80
2022-10-23T10:15:36.440Z,2.63
2022-10-23T10:18:14.155Z,3.15
2022-10-23T10:21:02.158Z,2.90
2022-10-23T10:23:39.522Z,2.78
2022-10-23T10:26:19.624Z,3.25
2022-10-23T10:29:01.326Z,2.53
2022-10-23T10:31:40.998Z,3.00
2022-10-23T10:34:18.075Z,2.92
2022-10-23T10:36:53.989Z,3.85
2022-10-23T10:39:42.027Z,2.58
2022-10-23T10:42:31.105Z,2.70
2022-10-23T10:45:13.837Z,2.45
2022-10-23T10:47:53.847Z,3.33
2022-10-23T10:50:27.416Z,6.22
2022-10-23T10:53:04.475Z,3.75
2022-10-23T10:55:37.875Z,2.90
2022-10-23T10:58:14.752Z,2.75
2022-10-23T11:00:43.986Z,2.35
2022-10-23T11:03:26.247Z,2.85
2022-10-23T11:05:57.014Z,2.92
2022-10-23T11:08:40.248Z,2.85
2022-10-23T11:11:22.025Z,2.47
2022-10-23T11:13:53.258Z,2.33
2022-10-23T11:16:24.650Z,2.35
2022-10-23T11:19:07.523Z,2.60
2022-10-23T11:21:44.140Z,2.67
2022-10-23T11:24:39.464Z,2.58
2022-10-23T11:27:29.059Z,2.42
2022-10-23T11:30:13.590Z,2.13
2022-10-23T11:35:33.992Z,2.85
2022-10-23T11:38:15.775Z,2.45
2022-10-23T11:40:46.430Z,2.75
2022-10-23T11:43:14.548Z,3.08
2022-10-23T11:45:42.645Z,2.90
2022-10-23T11:48:23.392Z,2.72
2022-10-23T11:50:56.455Z,2.65
2022-10-23T11:53:28.902Z,2.83
2022-10-23T11:55:59.683Z,2.95
2022-10-23T11:58:32.036Z,2.60
2022-10-23T12:01:03.847Z,2.95
2022-10-23T12:03:51.807Z,2.58
2022-10-23T12:06:25.966Z,2.33
2022-10-23T12:08:57.459Z,2.28
2022-10-23T12:11:41.245Z,3.22
2022-10-23T12:14:27.690Z,2.00
2022-10-23T12:16:55.711Z,2.30
2022-10-23T12:19:26.062Z,2.58
2022-10-23T12:21:58.624Z,2.33
2022-10-23T12:24:56.652Z,2.65
2022-10-23T12:27:32.913Z,2.78
2022-10-23T12:30:13.859Z,2.22
2022-10-23T12:33:11.744Z,2.38
2022-10-23T12:35:56.108Z,2.50
2022-10-23T12:38:31.331Z,2.30
2022-10-23T12:41:07.117Z,2.10
2022-10-23T12:43:38.692Z,2.75
2022-10-23T12:46:22.277Z,1.92
2022-10-23T12:48:51.757Z,2.55
2022-10-23T12:51:25.197Z,2.28
2022-10-23T12:53:54.455Z,2.20
2022-10-23T12:56:23.043Z,1.77
2022-10-23T12:58:53.261Z,2.10
2022-10-23T13:01:27.465Z,2.00
2022-10-23T13:06:27.764Z,2.33
2022-10-23T13:08:58.236Z,2.47
2022-10-23T13:11:27.598Z,2.10
2022-10-23T13:13:55.645Z,2.78
2022-10-23T13:16:25.194Z,2.22
2022-10-23T13:18:54.181Z,1.90
2022-10-23T13:21:24.167Z,1.98
2022-10-23T13:23:52.555Z,2.30
2022-10-23T13:26:32.912Z,2.33
2022-10-23T13:29:06.065Z,2.45
2022-10-23T13:31:37.411Z,1.92
2022-10-23T13:34:19.559Z,1.80
2022-10-23T13:36:57.560Z,2.53
2022-10-23T13:39:27.528Z,1.75
2022-10-23T13:41:56.879Z,1.90
2022-10-23T13:44:26.415Z,2.22
2022-10-23T13:46:54.609Z,2.08
2022-10-23T13:49:22.488Z,1.90
2022-10-23T13:51:52.484Z,2.10
2022-10-23T13:54:22.247Z,2.60
2022-10-23T13:56:50.333Z,2.30
2022-10-23T13:59:20.340Z,2.08
2022-10-23T14:01:50.319Z,2.08
2022-10-23T14:04:19.365Z,2.22
2022-10-23T14:06:47.663Z,1.95
2022-10-23T14:09:17.431Z,2.33
2022-10-23T14:11:45.949Z,2.42
2022-10-23T14:14:13.929Z,1.90
2022-10-23T14:16:43.159Z,2.33
2022-10-23T14:19:12.163Z,1.73
2022-10-23T14:21:40.421Z,2.35
2022-10-23T14:24:09.769Z,2.55
2022-10-23T14:26:38.170Z,1.88
2022-10-23T14:29:09.951Z,2.58
2022-10-23T14:31:39.366Z,2.30
2022-10-23T14:34:09.293Z,2.10
2022-10-23T14:36:49.403Z,1.90
2022-10-23T14:39:24.769Z,2.15
2022-10-23T14:41:52.750Z,2.30
2022-10-23T14:44:20.739Z,2.50
2022-10-23T14:46:48.587Z,2.35
2022-10-23T14:49:17.838Z,2.40
2022-10-23T14:51:45.931Z,2.42
2022-10-23T14:54:13.822Z,2.20
2022-10-23T14:56:41.692Z,2.25
2022-10-23T14:59:10.878Z,2.83
2022-10-23T15:01:43.818Z,2.70
2022-10-23T15:04:15.022Z,2.30
2022-10-23T15:06:46.324Z,3.13
2022-10-23T15:09:14.488Z,2.97
2022-10-23T15:11:42.589Z,2.75
2022-10-23T15:14:10.458Z,3.30
2022-10-23T15:16:41.537Z,2.55
2022-10-23T15:19:13.563Z,2.45
2022-10-23T15:21:46.589Z,2.45
2022-10-23T15:24:14.794Z,2.30
2022-10-23T15:26:43.408Z,2.80
2022-10-23T15:29:12.200Z,2.55
2022-10-23T15:31:45.827Z,2.83
2022-10-23T15:34:16.569Z,2.60
2022-10-23T15:36:47.206Z,2.58
2022-10-23T15:39:17.820Z,2.63
2022-10-23T15:41:45.963Z,2.40
2022-10-23T15:44:17.045Z,2.55
2022-10-23T15:46:45.287Z,2.38
2022-10-23T15:49:13.912Z,2.67
2022-10-23T15:51:43.137Z,2.40
2022-10-23T15:54:16.515Z,2.72
2022-10-23T15:56:44.678Z,2.45
2022-10-23T15:59:12.901Z,2.75
2022-10-23T16:01:40.987Z,2.67
2022-10-23T16:04:09.165Z,3.03
2022-10-23T16:06:37.117Z,2.80
2022-10-23T16:09:05.130Z,3.03
2022-10-23T16:11:37.007Z,2.45
2022-10-23T16:14:05.865Z,2.75
2022-10-23T16:16:34.600Z,2.95
2022-10-23T16:19:03.807Z,2.40
2022-10-23T16:21:33.943Z,3.00
2022-10-23T16:24:03.346Z,2.85
2022-10-23T16:26:31.960Z,2.58
2022-10-23T16:29:03.481Z,3.17
2022-10-23T16:31:31.541Z,3.05
2022-10-23T16:34:00.775Z,2.50
2022-10-23T16:36:29.475Z,2.88
2022-10-23T16:38:57.462Z,3.17
2022-10-23T16:41:25.361Z,2.20
2022-10-23T16:43:53.311Z,2.70
2022-10-23T16:46:23.259Z,2.70
2022-10-23T16:48:54.313Z,3.28
2022-10-23T16:51:24.515Z,3.25
2022-10-23T16:53:53.593Z,3.60
2022-10-23T16:56:23.969Z,3.22
2022-10-23T16:58:51.994Z,3.55
2022-10-23T17:01:23.165Z,3.15
2022-10-23T17:03:53.010Z,3.10
2022-10-23T17:06:23.212Z,3.08
2022-10-23T17:08:51.455Z,3.78
2022-10-23T17:11:21.512Z,3.10
2022-10-23T17:13:55.182Z,3.50
2022-10-23T17:16:29.922Z,3.72
2022-10-23T17:18:58.253Z,3.53
2022-10-23T17:21:26.130Z,3.35
2022-10-23T17:23:54.099Z,3.10
2022-10-23T17:26:23.221Z,2.72
2022-10-23T17:28:51.168Z,3.22
2022-10-23T17:31:21.371Z,2.95
2022-10-23T17:33:53.512Z,3.13
2022-10-23T17:36:22.741Z,3.33
2022-10-23T17:38:51.125Z,2.92
2022-10-23T17:41:21.864Z,3.72
2022-10-23T17:43:50.353Z,3.40
2022-10-23T17:46:19.180Z,3.10
2022-10-23T17:48:47.094Z,3.20
2022-10-23T17:51:19.692Z,3.40
2022-10-23T17:53:49.249Z,2.85
2022-10-23T17:56:20.226Z,2.65
2022-10-23T17:58:48.218Z,3.30
2022-10-23T18:01:17.933Z,3.50
2022-10-23T18:03:46.095Z,3.75
2022-10-23T18:06:17.709Z,3.97
2022-10-23T18:08:46.414Z,3.63
2022-10-23T18:11:17.024Z,3.20
2022-10-23T18:13:45.071Z,3.97
2022-10-23T18:16:13.474Z,3.50
2022-10-23T18:18:43.179Z,3.55
2022-10-23T18:21:11.950Z,3.38
2022-10-23T18:23:41.162Z,3.30
2022-10-23T18:26:16.697Z,3.72
2022-10-23T18:28:45.117Z,3.38
2022-10-23T18:31:14.704Z,3.10
2022-10-23T18:33:42.674Z,3.15
2022-10-23T18:36:15.717Z,3.33
2022-10-23T18:38:45.093Z,3.47
2022-10-23T18:41:13.128Z,3.28
2022-10-23T18:43:44.155Z,3.53
2022-10-23T18:46:12.658Z,3.47
2022-10-23T18:48:40.928Z,3.70
2022-10-23T18:51:15.785Z,3.50
2022-10-23T18:53:46.933Z,2.97
2022-10-23T18:56:16.052Z,3.40
2022-10-23T18:58:44.025Z,3.00
2022-10-23T19:01:12.000Z,3.08
2022-10-23T19:03:39.981Z,3.42
2022-10-23T19:06:08.704Z,2.85
2022-10-23T19:08:37.673Z,2.88
2022-10-23T19:11:08.082Z,3.50
2022-10-23T19:13:39.141Z,3.22
2022-10-23T19:16:09.843Z,3.50
2022-10-23T19:18:39.761Z,2.72
2022-10-23T19:21:07.868Z,3.28
2022-10-23T19:23:38.354Z,3.47
2022-10-23T19:26:12.011Z,3.05
2022-10-23T19:28:42.457Z,3.35
2022-10-23T19:31:11.384Z,2.88
2022-10-23T19:33:39.930Z,3.13
2022-10-23T19:36:12.583Z,3.10
2022-10-23T19:38:42.273Z,2.92
2022-10-23T19:41:19.965Z,2.72
2022-10-23T19:43:47.920Z,3.13
2022-10-23T19:46:16.221Z,2.78
2022-10-23T19:48:45.010Z,2.95
2022-10-23T19:51:14.099Z,3.17
2022-10-23T19:53:42.723Z,3.03
2022-10-23T19:56:13.041Z,2.88
2022-10-23T19:58:43.046Z,2.90
2022-10-23T20:01:12.952Z,3.20
2022-10-23T20:03:42.263Z,3.28
2022-10-23T20:06:11.435Z,3.10
2022-10-23T20:08:40.099Z,3.00
2022-10-23T20:11:09.015Z,3.00
2022-10-23T20:13:37.222Z,3.08
2022-10-23T20:16:07.151Z,2.70
2022-10-23T20:18:35.785Z,2.97
2022-10-23T20:21:03.829Z,2.20
2022-10-23T20:23:31.832Z,2.58
2022-10-23T20:26:06.451Z,2.13
2022-10-23T20:28:35.109Z,2.72
2022-10-23T20:31:08.441Z,2.35
2022-10-23T20:33:36.917Z,2.53
2022-10-23T20:36:05.880Z,2.38
2022-10-23T20:38:33.889Z,2.28
2022-10-23T20:41:05.676Z,2.00
2022-10-23T20:43:34.777Z,1.80
2022-10-23T20:46:05.012Z,1.70
2022-10-23T20:48:36.435Z,1.92
2022-10-23T20:51:04.846Z,1.90
2022-10-23T20:53:33.390Z,1.63
2022-10-23T20:56:01.452Z,1.70
2022-10-23T20:58:29.334Z,1.60
2022-10-23T21:00:58.116Z,1.33
2022-10-23T21:03:26.387Z,1.40
2022-10-23T21:05:56.178Z,1.60
2022-10-23T21:08:24.199Z,1.60
2022-10-23T21:10:52.376Z,1.20
2022-10-23T21:13:20.251Z,1.20
2022-10-23T21:15:50.509Z,1.20
2022-10-23T21:18:34.170Z,1.40
2022-10-23T21:21:08.126Z,1.27
2022-10-23T21:23:36.774Z,1.17
2022-10-23T21:26:07.619Z,1.27
2022-10-23T21:28:35.837Z,1.20
2022-10-23T21:31:04.766Z,1.20
2022-10-23T21:33:32.955Z,1.48
2022-10-23T21:36:13.747Z,1.50
2022-10-23T21:38:43.720Z,1.30
2022-10-23T21:41:14.406Z,1.27
2022-10-23T21:43:42.645Z,1.77
2022-10-23T21:46:13.813Z,1.40
2022-10-23T21:48:42.665Z,1.35
2022-10-23T21:51:14.655Z,1.42
2022-10-23T21:53:43.894Z,1.73
2022-10-23T21:56:22.856Z,1.67
2022-10-23T21:58:52.008Z,1.48
2022-10-23T22:01:20.098Z,2.20
2022-10-23T22:03:48.559Z,1.90
2022-10-23T22:06:19.284Z,1.52
2022-10-23T22:08:48.683Z,1.60
2022-10-23T22:11:17.074Z,1.40
2022-10-23T22:13:45.802Z,1.55
2022-10-23T22:16:16.476Z,2.00
2022-10-23T22:18:45.270Z,1.77
2022-10-23T22:21:16.644Z,2.00
2022-10-23T22:23:45.423Z,2.00
2022-10-23T22:26:22.123Z,2.17
2022-10-23T22:28:50.656Z,2.25
2022-10-23T22:31:21.570Z,1.80
2022-10-23T22:33:49.732Z,1.98
2022-10-23T22:36:17.872Z,1.75
2022-10-23T22:38:46.347Z,1.55
2022-10-23T22:41:15.261Z,1.58
2022-10-23T22:43:44.565Z,1.60
2022-10-23T22:46:14.849Z,1.88
2022-10-23T22:48:43.365Z,2.42
2022-10-23T22:51:12.858Z,1.63
2022-10-23T22:53:40.847Z,1.60
2022-10-23T22:56:12.012Z,1.75
2022-10-23T22:58:39.987Z,1.75
2022-10-23T23:01:13.859Z,2.05
2022-10-23T23:03:42.429Z,1.77
2022-10-23T23:06:10.807Z,1.70
2022-10-23T23:08:41.009Z,1.88
2022-10-23T23:11:10.234Z,1.80
2022-10-23T23:13:38.818Z,1.85
2022-10-23T23:16:07.577Z,2.47
2022-10-23T23:18:36.937Z,2.42
2022-10-23T23:21:06.142Z,3.20
2022-10-23T23:23:34.047Z,3.08
2022-10-23T23:26:05.805Z,3.33
2022-10-23T23:28:34.271Z,3.67
2022-10-23T23:31:07.612Z,3.47
2022-10-23T23:33:37.335Z,3.43
2022-10-23T23:36:08.299Z,3.20
2022-10-23T23:38:37.227Z,3.25
2022-10-23T23:41:06.373Z,3.45
2022-10-23T23:43:34.551Z,3.97
2022-10-23T23:46:02.470Z,3.22
2022-10-23T23:48:31.369Z,3.15
2022-10-23T23:51:00.907Z,2.78
2022-10-23T23:53:28.852Z,2.78
2022-10-23T23:55:58.284Z,2.58
2022-10-23T23:58:26.325Z,2.95
